createdAt,value
2023-10-22T00:01:57.043Z,47.00
2023-10-22T00:04:23.850Z,46.85
2023-10-22T00:06:50.737Z,46.95
2023-10-22T00:09:17.527Z,46.73
2023-10-22T00:11:44.432Z,46.80
2023-10-22T00:14:11.267Z,46.87
2023-10-22T00:16:38.045Z,46.88
2023-10-22T00:19:04.843Z,46.60
2023-10-22T00:21:31.631Z,46.56
2023-10-22T00:23:58.444Z,46.65
2023-10-22T00:26:25.286Z,46.54
2023-10-22T00:28:52.100Z,46.56
2023-10-22T00:31:18.895Z,46.76
2023-10-22T00:33:45.894Z,46.64
2023-10-22T00:36:12.878Z,46.60
2023-10-22T00:38:39.783Z,46.68
2023-10-22T00:41:06.597Z,46.53
2023-10-22T00:43:33.408Z,46.83
2023-10-22T00:46:00.265Z,46.58
2023-10-22T00:48:27.264Z,46.67
2023-10-22T00:50:54.205Z,47.01
2023-10-22T00:53:21.000Z,47.18
2023-10-22T00:55:47.809Z,47.19
2023-10-22T00:58:14.595Z,47.01
2023-10-22T01:00:41.421Z,47.15
2023-10-22T01:03:08.411Z,46.86
2023-10-22T01:05:35.332Z,47.00
2023-10-22T01:08:02.124Z,46.81
2023-10-22T01:10:28.965Z,46.77
2023-10-22T01:12:55.793Z,46.81
2023-10-22T01:15:22.650Z,46.78
2023-10-22T01:17:49.494Z,46.56
2023-10-22T01:20:16.351Z,46.80
2023-10-22T01:22:43.156Z,46.61
2023-10-22T01:25:10.016Z,46.75
2023-10-22T01:27:36.805Z,47.03
2023-10-22T01:30:03.945Z,47.05
2023-10-22T01:32:30.817Z,47.03
2023-10-22T01:34:57.612Z,46.91
2023-10-22T01:37:24.414Z,46.86
2023-10-22T01:39:51.417Z,47.16
2023-10-22T01:42:18.265Z,46.93
2023-10-22T01:44:45.120Z,46.99
2023-10-22T01:47:11.909Z,46.68
2023-10-22T01:49:38.698Z,46.75
2023-10-22T01:52:05.511Z,46.78
2023-10-22T01:54:32.333Z,46.85
2023-10-22T01:56:59.184Z,46.82
2023-10-22T01:59:25.992Z,46.92
2023-10-22T02:01:52.835Z,46.98
2023-10-22T02:04:19.651Z,46.85
2023-10-22T02:06:46.494Z,46.99
2023-10-22T02:09:13.365Z,46.76
2023-10-22T02:11:40.256Z,46.85
2023-10-22T02:14:07.070Z,47.13
2023-10-22T02:16:33.984Z,47.05
2023-10-22T02:19:00.790Z,47.00
2023-10-22T02:21:27.716Z,47.10
2023-10-22T02:23:54.652Z,47.18
2023-10-22T02:26:21.475Z,47.21
2023-10-22T02:28:48.251Z,47.04
2023-10-22T02:31:15.058Z,46.94
2023-10-22T02:33:41.970Z,46.99
2023-10-22T02:36:08.878Z,47.13
2023-10-22T02:38:35.731Z,47.08
2023-10-22T02:41:02.520Z,47.26
2023-10-22T02:43:29.369Z,47.16
2023-10-22T02:45:56.172Z,46.92
2023-10-22T02:48:23.115Z,47.20
2023-10-22T02:50:50.091Z,47.31
2023-10-22T02:53:16.909Z,47.26
2023-10-22T02:55:43.739Z,47.21
2023-10-22T02:58:10.524Z,47.12
2023-10-22T03:00:37.833Z,47.23
2023-10-22T03:03:05.018Z,46.98
2023-10-22T03:05:32.072Z,46.95
2023-10-22T03:07:58.820Z,47.11
2023-10-22T03:10:25.671Z,47.19
2023-10-22T03:12:52.499Z,47.22
2023-10-22T03:15:19.321Z,47.17
2023-10-22T03:17:46.230Z,47.14
2023-10-22T03:20:13.153Z,47.18
2023-10-22T03:22:40.000Z,47.15
2023-10-22T03:25:06.865Z,47.10
2023-10-22T03:27:33.668Z,47.04
2023-10-22T03:30:00.510Z,47.00
2023-10-22T03:32:27.410Z,47.40
2023-10-22T03:34:54.260Z,47.40
2023-10-22T03:37:21.050Z,47.06
2023-10-22T03:39:47.869Z,46.93
2023-10-22T03:42:14.706Z,47.00
2023-10-22T03:44:41.637Z,46.93
2023-10-22T03:47:08.465Z,46.97
2023-10-22T03:49:35.380Z,46.72
2023-10-22T03:52:02.216Z,46.93
2023-10-22T03:54:29.014Z,46.92
2023-10-22T03:56:55.844Z,46.68
2023-10-22T03:59:22.674Z,46.86
2023-10-22T04:01:49.635Z,47.04
2023-10-22T04:04:16.472Z,47.05
2023-10-22T04:06:43.295Z,47.01
2023-10-22T04:09:10.089Z,46.89
2023-10-22T04:11:36.954Z,46.90
2023-10-22T04:14:03.748Z,47.01
2023-10-22T04:16:30.585Z,46.87
2023-10-22T04:18:57.367Z,46.72
2023-10-22T04:21:24.162Z,46.96
2023-10-22T04:23:51.054Z,46.73
2023-10-22T04:26:17.925Z,46.76
2023-10-22T04:28:44.771Z,47.19
2023-10-22T04:31:11.644Z,47.23
2023-10-22T04:33:40.852Z,47.14
2023-10-22T04:36:08.280Z,46.86
2023-10-22T04:38:35.128Z,46.78
2023-10-22T04:41:01.906Z,46.68
2023-10-22T04:43:28.747Z,47.07
2023-10-22T04:45:55.642Z,47.00
2023-10-22T04:48:22.533Z,46.94
2023-10-22T04:50:49.533Z,46.92
2023-10-22T04:53:16.375Z,47.04
2023-10-22T04:55:43.193Z,47.11
2023-10-22T04:58:10.025Z,46.96
2023-10-22T05:00:36.831Z,46.82
2023-10-22T05:03:03.676Z,47.15
2023-10-22T05:05:30.498Z,47.05
2023-10-22T05:07:57.310Z,46.88
2023-10-22T05:10:24.097Z,46.76
2023-10-22T05:12:50.936Z,46.79
2023-10-22T05:15:17.811Z,46.62
2023-10-22T05:17:44.804Z,46.95
2023-10-22T05:20:11.688Z,46.79
2023-10-22T05:22:38.470Z,46.63
2023-10-22T05:25:05.367Z,46.69
2023-10-22T05:27:32.156Z,46.81
2023-10-22T05:29:58.991Z,47.17
2023-10-22T05:32:25.854Z,47.32
2023-10-22T05:34:52.645Z,47.17
2023-10-22T05:37:19.437Z,47.71
2023-10-22T05:39:46.233Z,47.66
2023-10-22T05:42:13.024Z,47.98
2023-10-22T05:44:40.203Z,47.93
2023-10-22T05:47:07.201Z,47.67
2023-10-22T05:49:34.054Z,47.58
2023-10-22T05:52:00.847Z,47.55
2023-10-22T05:54:27.678Z,47.68
2023-10-22T05:56:54.532Z,47.65
2023-10-22T05:59:21.346Z,47.74
2023-10-22T06:01:48.286Z,47.72
2023-10-22T06:04:15.242Z,47.82
2023-10-22T06:06:42.104Z,47.71
2023-10-22T06:09:08.992Z,47.29
2023-10-22T06:11:35.875Z,47.31
2023-10-22T06:14:02.821Z,47.72
2023-10-22T06:16:29.699Z,45.90
2023-10-22T06:18:56.615Z,47.21
2023-10-22T06:21:23.493Z,48.33
2023-10-22T06:23:50.512Z,48.63
2023-10-22T06:26:17.300Z,47.75
2023-10-22T06:28:44.094Z,47.14
2023-10-22T06:31:10.924Z,47.04
2023-10-22T06:33:37.941Z,47.20
2023-10-22T06:36:04.844Z,46.83
2023-10-22T06:38:31.657Z,46.58
2023-10-22T06:40:58.453Z,46.29
2023-10-22T06:43:25.243Z,46.28
2023-10-22T06:45:52.194Z,46.04
2023-10-22T06:48:19.082Z,46.35
2023-10-22T06:50:45.965Z,46.04
2023-10-22T06:53:12.780Z,45.93
2023-10-22T06:55:39.631Z,46.23
2023-10-22T06:58:06.431Z,46.32
2023-10-22T07:00:33.264Z,46.03
2023-10-22T07:03:00.133Z,46.02
2023-10-22T07:05:26.992Z,46.21
2023-10-22T07:07:53.830Z,45.73
2023-10-22T07:10:20.639Z,45.75
2023-10-22T07:12:47.415Z,45.40
2023-10-22T07:15:14.223Z,45.18
2023-10-22T07:17:41.068Z,45.57
2023-10-22T07:20:07.980Z,46.43
2023-10-22T07:22:34.770Z,46.19
2023-10-22T07:25:01.679Z,46.53
2023-10-22T07:27:28.580Z,45.78
2023-10-22T07:29:55.435Z,44.58
2023-10-22T07:32:22.337Z,44.65
2023-10-22T07:34:49.212Z,44.65
2023-10-22T07:37:16.023Z,44.61
2023-10-22T07:39:42.845Z,44.36
2023-10-22T07:42:09.760Z,44.78
2023-10-22T07:44:36.842Z,44.37
2023-10-22T07:47:03.796Z,44.23
2023-10-22T07:49:30.615Z,44.52
2023-10-22T07:51:57.506Z,44.55
2023-10-22T07:54:24.345Z,44.72
2023-10-22T07:56:51.236Z,44.35
2023-10-22T07:59:18.082Z,44.55
2023-10-22T08:01:44.900Z,44.59
2023-10-22T08:04:11.776Z,44.66
2023-10-22T08:06:38.660Z,45.06
2023-10-22T08:09:05.495Z,45.82
2023-10-22T08:11:32.408Z,45.56
2023-10-22T08:13:59.247Z,45.31
2023-10-22T08:16:26.082Z,45.11
2023-10-22T08:18:52.935Z,44.45
2023-10-22T08:21:19.834Z,44.46
2023-10-22T08:23:46.693Z,44.16
2023-10-22T08:26:13.561Z,44.01
2023-10-22T08:28:40.341Z,44.24
2023-10-22T08:31:07.144Z,44.23
2023-10-22T08:33:33.990Z,43.76
2023-10-22T08:36:00.910Z,43.64
2023-10-22T08:38:27.768Z,43.74
2023-10-22T08:40:54.629Z,44.17
2023-10-22T08:43:21.445Z,44.80
2023-10-22T08:45:48.271Z,45.08
2023-10-22T08:48:16.644Z,45.29
2023-10-22T08:50:43.688Z,45.26
2023-10-22T08:53:10.465Z,46.15
2023-10-22T08:55:37.324Z,46.07
2023-10-22T08:58:04.138Z,44.75
2023-10-22T09:00:32.472Z,44.29
2023-10-22T09:02:59.499Z,44.26
2023-10-22T09:05:26.452Z,44.31
2023-10-22T09:07:53.248Z,44.95
2023-10-22T09:10:20.094Z,44.96
2023-10-22T09:12:46.930Z,45.08
2023-10-22T09:15:13.767Z,44.98
2023-10-22T09:17:40.611Z,45.29
2023-10-22T09:20:07.489Z,45.52
2023-10-22T09:22:34.277Z,44.81
2023-10-22T09:25:01.067Z,44.85
2023-10-22T09:27:28.021Z,44.87
2023-10-22T09:29:54.905Z,44.74
2023-10-22T09:32:24.719Z,44.68
2023-10-22T09:34:51.636Z,44.33
2023-10-22T09:37:18.686Z,43.86
2023-10-22T09:39:45.508Z,43.81
2023-10-22T09:44:42.056Z,44.07
2023-10-22T09:47:08.927Z,44.30
2023-10-22T09:49:35.790Z,44.69
2023-10-22T09:52:02.614Z,44.70
2023-10-22T09:54:29.545Z,44.53
2023-10-22T09:56:56.388Z,44.77
2023-10-22T09:59:23.226Z,44.58
2023-10-22T10:01:50.048Z,44.42
2023-10-22T10:04:17.042Z,44.70
2023-10-22T10:06:43.990Z,45.31
2023-10-22T10:09:10.892Z,45.47
2023-10-22T10:11:37.729Z,45.60
2023-10-22T10:14:04.545Z,46.22
2023-10-22T10:16:31.365Z,46.12
2023-10-22T10:18:58.225Z,45.98
2023-10-22T10:21:25.070Z,46.39
2023-10-22T10:23:52.030Z,46.38
2023-10-22T10:26:18.856Z,46.57
2023-10-22T10:28:46.725Z,46.68
2023-10-22T10:31:13.742Z,46.59
2023-10-22T10:33:40.628Z,46.49
2023-10-22T10:36:07.499Z,46.58
2023-10-22T10:38:34.321Z,46.58
2023-10-22T10:41:01.130Z,46.50
2023-10-22T10:43:27.951Z,46.41
2023-10-22T10:45:54.779Z,46.48
2023-10-22T10:48:21.664Z,46.47
2023-10-22T10:50:48.557Z,46.18
2023-10-22T10:53:15.431Z,46.39
2023-10-22T10:55:44.090Z,46.42
2023-10-22T10:58:13.916Z,46.47
2023-10-22T11:00:50.992Z,46.17
2023-10-22T11:03:25.484Z,45.82
2023-10-22T11:05:52.406Z,46.14
2023-10-22T11:08:19.295Z,46.26
2023-10-22T11:10:46.161Z,46.14
2023-10-22T11:13:12.951Z,46.17
2023-10-22T11:15:39.804Z,46.42
2023-10-22T11:18:06.761Z,46.06
2023-10-22T11:20:33.726Z,46.08
2023-10-22T11:23:00.519Z,45.97
2023-10-22T11:25:27.350Z,46.04
2023-10-22T11:27:54.149Z,45.38
2023-10-22T11:30:21.037Z,45.61
2023-10-22T11:32:47.931Z,45.58
2023-10-22T11:35:14.794Z,45.19
2023-10-22T11:37:41.644Z,45.57
2023-10-22T11:40:08.513Z,45.42
2023-10-22T11:42:35.335Z,45.72
2023-10-22T11:45:02.308Z,45.76
2023-10-22T11:47:29.273Z,45.54
2023-10-22T11:49:56.183Z,45.47
2023-10-22T11:52:23.027Z,45.53
2023-10-22T11:54:49.797Z,45.12
2023-10-22T11:57:16.719Z,45.07
2023-10-22T11:59:43.555Z,45.52
2023-10-22T12:02:10.353Z,45.39
2023-10-22T12:04:37.401Z,45.28
2023-10-22T12:07:04.369Z,45.06
2023-10-22T12:09:31.200Z,45.29
2023-10-22T12:11:58.087Z,45.05
2023-10-22T12:14:24.891Z,45.28
2023-10-22T12:16:51.804Z,44.99
2023-10-22T12:19:18.631Z,44.80
2023-10-22T12:21:45.507Z,45.06
2023-10-22T12:24:23.994Z,44.71
2023-10-22T12:26:53.487Z,44.96
2023-10-22T12:29:23.238Z,44.68
2023-10-22T12:31:50.580Z,44.81
2023-10-22T12:34:17.451Z,44.93
2023-10-22T12:36:44.281Z,44.97
2023-10-22T12:39:11.160Z,45.12
2023-10-22T12:41:38.005Z,44.71
2023-10-22T12:44:04.848Z,44.71
2023-10-22T12:46:31.775Z,44.68
2023-10-22T12:49:00.031Z,44.51
2023-10-22T12:51:27.773Z,44.51
2023-10-22T12:53:54.682Z,44.73
2023-10-22T12:56:21.485Z,44.79
2023-10-22T12:58:48.333Z,44.46
2023-10-22T13:01:15.145Z,44.52
2023-10-22T13:03:42.105Z,44.50
2023-10-22T13:06:08.995Z,44.32
2023-10-22T13:08:35.926Z,44.36
2023-10-22T13:11:02.784Z,44.25
2023-10-22T13:13:29.604Z,44.08
2023-10-22T13:15:56.454Z,44.11
2023-10-22T13:18:23.381Z,43.84
2023-10-22T13:20:51.447Z,44.41
2023-10-22T13:23:18.368Z,44.51
2023-10-22T13:25:45.148Z,44.40
2023-10-22T13:28:11.938Z,44.44
2023-10-22T13:30:38.776Z,44.33
2023-10-22T13:33:05.711Z,44.38
2023-10-22T13:35:32.534Z,44.41
2023-10-22T13:37:59.304Z,44.28
2023-10-22T13:40:26.118Z,44.42
2023-10-22T13:42:52.944Z,44.30
2023-10-22T13:45:19.840Z,44.59
2023-10-22T13:47:46.737Z,44.55
2023-10-22T13:50:13.567Z,44.53
2023-10-22T13:52:40.380Z,44.36
2023-10-22T13:55:07.177Z,44.42
2023-10-22T13:57:34.079Z,44.29
2023-10-22T14:00:00.918Z,44.59
2023-10-22T14:02:27.799Z,44.61
2023-10-22T14:04:54.689Z,44.55
2023-10-22T14:07:21.573Z,44.48
2023-10-22T14:09:48.433Z,44.07
2023-10-22T14:12:15.263Z,44.46
2023-10-22T14:14:42.083Z,44.69
2023-10-22T14:17:08.889Z,44.52
2023-10-22T14:19:35.791Z,44.72
2023-10-22T14:22:04.147Z,44.69
2023-10-22T14:24:33.107Z,44.57
2023-10-22T14:27:12.973Z,44.11
2023-10-22T14:29:40.797Z,44.07
2023-10-22T14:32:07.735Z,43.12
2023-10-22T14:34:34.539Z,42.97
2023-10-22T14:37:01.371Z,42.19
2023-10-22T14:39:28.248Z,42.76
2023-10-22T14:41:55.153Z,43.08
2023-10-22T14:44:21.967Z,43.24
2023-10-22T14:46:48.804Z,42.96
2023-10-22T14:49:15.644Z,42.79
2023-10-22T14:51:42.451Z,42.63
2023-10-22T14:54:09.289Z,43.30
2023-10-22T14:56:36.095Z,43.54
2023-10-22T14:59:02.893Z,45.12
2023-10-22T15:01:29.694Z,43.93
2023-10-22T15:03:56.733Z,45.35
2023-10-22T15:06:23.731Z,45.57
2023-10-22T15:08:50.731Z,44.62
2023-10-22T15:11:17.512Z,45.13
2023-10-22T15:13:44.291Z,44.74
2023-10-22T15:16:11.180Z,44.83
2023-10-22T15:18:38.116Z,44.71
2023-10-22T15:21:05.491Z,44.36
2023-10-22T15:23:35.124Z,44.64
2023-10-22T15:26:02.069Z,44.52
2023-10-22T15:28:28.902Z,44.47
2023-10-22T15:30:55.759Z,44.33
2023-10-22T15:33:22.601Z,44.40
2023-10-22T15:35:49.484Z,44.08
2023-10-22T15:38:16.347Z,44.12
2023-10-22T15:40:43.195Z,44.04
2023-10-22T15:43:09.998Z,43.92
2023-10-22T15:45:36.978Z,43.96
2023-10-22T15:48:04.029Z,43.99
2023-10-22T15:50:30.899Z,43.98
2023-10-22T15:52:57.859Z,44.00
2023-10-22T15:55:24.814Z,44.09
2023-10-22T15:57:51.763Z,43.84
2023-10-22T16:00:18.567Z,44.15
2023-10-22T16:02:45.446Z,44.06
2023-10-22T16:05:12.332Z,44.04
2023-10-22T16:07:39.199Z,43.96
2023-10-22T16:10:06.029Z,43.84
2023-10-22T16:12:32.843Z,43.90
2023-10-22T16:14:59.727Z,44.13
2023-10-22T16:17:26.595Z,44.53
2023-10-22T16:19:53.380Z,44.10
2023-10-22T16:22:20.209Z,44.08
2023-10-22T16:24:47.058Z,44.25
2023-10-22T16:27:13.942Z,45.08
2023-10-22T16:29:40.787Z,47.94
2023-10-22T16:32:07.605Z,50.29
2023-10-22T16:34:34.466Z,51.14
2023-10-22T16:37:01.280Z,50.78
2023-10-22T16:39:28.141Z,51.30
2023-10-22T16:41:54.954Z,50.49
2023-10-22T16:44:21.824Z,49.11
2023-10-22T16:46:48.664Z,51.32
2023-10-22T16:49:15.478Z,49.30
2023-10-22T16:51:42.277Z,50.16
2023-10-22T16:54:09.194Z,50.70
2023-10-22T16:56:35.986Z,50.83
2023-10-22T16:59:02.814Z,50.51
2023-10-22T17:01:29.687Z,50.40
2023-10-22T17:03:56.607Z,50.33
2023-10-22T17:06:23.485Z,50.01
2023-10-22T17:08:50.318Z,49.83
2023-10-22T17:11:17.275Z,49.69
2023-10-22T17:13:44.155Z,49.46
2023-10-22T17:16:11.043Z,49.26
2023-10-22T17:18:50.271Z,49.13
2023-10-22T17:21:19.489Z,49.10
2023-10-22T17:23:46.340Z,48.92
2023-10-22T17:26:13.153Z,48.84
2023-10-22T17:28:39.961Z,48.70
2023-10-22T17:31:06.826Z,48.60
2023-10-22T17:33:45.978Z,48.50
2023-10-22T17:36:20.442Z,48.41
2023-10-22T17:38:47.291Z,48.20
2023-10-22T17:41:14.117Z,47.93
2023-10-22T17:43:40.937Z,48.12
2023-10-22T17:46:07.778Z,48.09
2023-10-22T17:48:34.730Z,48.06
2023-10-22T17:51:01.592Z,47.93
2023-10-22T17:53:28.446Z,47.79
2023-10-22T17:56:08.443Z,47.69
2023-10-22T17:58:36.642Z,47.48
2023-10-22T18:01:03.659Z,47.79
2023-10-22T18:03:30.755Z,47.42
2023-10-22T18:05:57.740Z,47.47
2023-10-22T18:08:24.555Z,47.37
2023-10-22T18:10:51.435Z,47.51
2023-10-22T18:13:18.262Z,47.45
2023-10-22T18:15:45.169Z,47.26
2023-10-22T18:18:12.142Z,47.28
2023-10-22T18:20:39.057Z,47.31
2023-10-22T18:23:05.935Z,47.04
2023-10-22T18:25:32.778Z,47.20
2023-10-22T18:27:59.617Z,47.13
2023-10-22T18:30:26.463Z,47.35
2023-10-22T18:32:53.311Z,47.38
2023-10-22T18:35:20.165Z,47.23
2023-10-22T18:37:46.986Z,47.07
2023-10-22T18:40:13.818Z,49.49
2023-10-22T18:42:40.606Z,49.07
2023-10-22T18:45:07.428Z,49.17
2023-10-22T18:47:34.288Z,49.26
2023-10-22T18:50:01.108Z,49.36
2023-10-22T18:52:28.288Z,49.12
2023-10-22T18:54:55.105Z,49.02
2023-10-22T18:57:22.032Z,49.16
2023-10-22T18:59:48.917Z,49.04
2023-10-22T19:02:15.723Z,48.89
2023-10-22T19:04:42.812Z,48.83
2023-10-22T19:07:09.946Z,48.78
2023-10-22T19:09:36.773Z,48.91
2023-10-22T19:12:03.642Z,48.85
2023-10-22T19:14:30.494Z,48.67
2023-10-22T19:16:57.348Z,48.57
2023-10-22T19:19:24.229Z,48.73
2023-10-22T19:21:51.147Z,48.61
2023-10-22T19:24:18.098Z,48.56
2023-10-22T19:26:44.909Z,48.51
2023-10-22T19:29:11.736Z,48.44
2023-10-22T19:31:38.613Z,48.50
2023-10-22T19:34:05.764Z,48.46
2023-10-22T19:36:32.791Z,48.40
2023-10-22T19:38:59.610Z,48.45
2023-10-22T19:41:26.414Z,48.36
2023-10-22T19:43:53.230Z,49.24
2023-10-22T19:46:20.065Z,49.01
2023-10-22T19:48:46.922Z,48.61
2023-10-22T19:51:13.844Z,48.46
2023-10-22T19:53:40.664Z,48.31
2023-10-22T19:56:07.470Z,48.34
2023-10-22T19:58:34.356Z,48.30
2023-10-22T20:01:01.198Z,48.30
2023-10-22T20:03:28.205Z,48.19
2023-10-22T20:05:55.098Z,48.30
2023-10-22T20:08:21.916Z,48.38
2023-10-22T20:10:48.772Z,48.26
2023-10-22T20:13:15.597Z,48.25
2023-10-22T20:15:42.448Z,48.36
2023-10-22T20:18:09.370Z,48.25
2023-10-22T20:20:36.352Z,48.34
2023-10-22T20:23:03.185Z,48.41
2023-10-22T20:25:29.986Z,48.30
2023-10-22T20:27:56.929Z,48.19
2023-10-22T20:30:23.854Z,48.23
2023-10-22T20:32:50.872Z,48.37
2023-10-22T20:35:17.854Z,48.34
2023-10-22T20:37:44.701Z,48.20
2023-10-22T20:40:11.524Z,48.32
2023-10-22T20:42:38.392Z,48.33
2023-10-22T20:45:05.250Z,48.25
2023-10-22T20:47:32.046Z,48.20
2023-10-22T20:49:58.881Z,48.23
2023-10-22T20:52:25.636Z,48.28
2023-10-22T20:54:52.866Z,48.27
2023-10-22T20:57:20.019Z,48.21
2023-10-22T20:59:46.921Z,48.17
2023-10-22T21:02:13.740Z,48.26
2023-10-22T21:04:40.708Z,48.30
2023-10-22T21:07:07.737Z,48.22
2023-10-22T21:09:34.597Z,48.46
2023-10-22T21:12:01.480Z,48.32
2023-10-22T21:14:28.385Z,48.35
2023-10-22T21:16:55.278Z,48.36
2023-10-22T21:19:22.106Z,48.48
2023-10-22T21:21:49.044Z,48.54
2023-10-22T21:24:16.054Z,48.53
2023-10-22T21:26:42.943Z,48.56
2023-10-22T21:29:09.752Z,48.68
2023-10-22T21:31:36.595Z,48.56
2023-10-22T21:34:03.498Z,48.48
2023-10-22T21:36:30.401Z,48.57
2023-10-22T21:38:57.368Z,48.73
2023-10-22T21:41:24.244Z,48.57
2023-10-22T21:43:51.125Z,48.85
2023-10-22T21:46:17.946Z,48.67
2023-10-22T21:48:44.926Z,48.65
2023-10-22T21:51:11.892Z,48.81
2023-10-22T21:53:38.707Z,48.76
2023-10-22T21:56:05.524Z,48.77
2023-10-22T21:58:32.484Z,48.78
2023-10-22T22:00:59.391Z,48.88
2023-10-22T22:03:26.326Z,48.94
2023-10-22T22:05:53.274Z,49.13
2023-10-22T22:08:20.094Z,48.99
2023-10-22T22:10:46.895Z,49.12
2023-10-22T22:13:13.732Z,49.07
2023-10-22T22:15:40.608Z,49.10
2023-10-22T22:18:07.507Z,49.12
2023-10-22T22:20:34.389Z,49.09
2023-10-22T22:23:01.236Z,49.24
2023-10-22T22:25:37.653Z,49.32
2023-10-22T22:28:10.985Z,49.51
2023-10-22T22:30:37.978Z,49.50
2023-10-22T22:33:04.952Z,49.44
2023-10-22T22:35:31.939Z,49.37
2023-10-22T22:37:58.788Z,49.61
2023-10-22T22:40:25.697Z,49.39
2023-10-22T22:42:52.726Z,49.35
2023-10-22T22:45:19.742Z,49.63
2023-10-22T22:47:46.650Z,49.52
2023-10-22T22:50:13.529Z,48.58
2023-10-22T22:52:40.336Z,48.19
2023-10-22T22:55:07.181Z,48.09
2023-10-22T22:57:34.104Z,48.51
2023-10-22T23:00:00.966Z,48.48
2023-10-22T23:02:27.772Z,48.62
2023-10-22T23:04:54.641Z,48.76
2023-10-22T23:07:21.492Z,48.71
2023-10-22T23:09:48.324Z,48.60
2023-10-22T23:12:15.204Z,48.74
2023-10-22T23:14:42.007Z,48.79
2023-10-22T23:17:08.817Z,48.87
2023-10-22T23:19:35.642Z,48.96
2023-10-22T23:22:02.441Z,48.88
2023-10-22T23:24:29.266Z,48.83
2023-10-22T23:26:56.113Z,48.98
2023-10-22T23:29:22.925Z,48.84
2023-10-22T23:31:49.999Z,48.97
2023-10-22T23:34:16.817Z,49.12
2023-10-22T23:36:43.633Z,49.21
2023-10-22T23:39:10.461Z,49.39
2023-10-22T23:41:37.263Z,49.12
2023-10-22T23:44:04.085Z,49.11
2023-10-22T23:46:30.920Z,49.22
2023-10-22T23:48:57.722Z,49.29
2023-10-22T23:51:24.530Z,49.25
2023-10-22T23:53:51.489Z,49.09
2023-10-22T23:56:18.323Z,49.19
2023-10-22T23:58:45.149Z,49.25
